Time;durP1;ratioP1;P1;durP2;ratioP2;P2;SDS_P1;SDS_P2;PMS_P1;PMS_P2;Temp;Humidity;BMP_temperature;BMP_pressure;BME280_temperature;BME280_humidity;BME280_pressure;Samples;Min_cycle;Max_cycle;Signal;HPM_P1;HPM_P2
2022/11/19 00:00:52;;;;;;;11.20;4.82;;;;;;;3.20;100.00;95849.22;5041819;28;20052;-66
2022/11/19 00:03:19;;;;;;;13.13;5.78;;;;;;;3.25;100.00;95854.41;5037251;28;20047;-67
2022/11/19 00:05:46;;;;;;;13.23;5.07;;;;;;;3.31;100.00;95849.53;5042030;28;20488;-67
2022/11/19 00:08:16;;;;;;;7.75;4.78;;;;;;;3.39;100.00;95854.06;5037609;28;20037;-67
2022/11/19 00:10:43;;;;;;;9.50;4.70;;;;;;;3.54;100.00;95847.16;5042584;28;20040;-67
2022/11/19 00:13:08;;;;;;;10.20;5.30;;;;;;;3.69;100.00;95854.56;5036841;28;20049;-66
2022/11/19 00:15:35;;;;;;;7.03;4.32;;;;;;;3.82;100.00;95850.69;5039718;28;20043;-67
2022/11/19 00:18:00;;;;;;;8.13;4.38;;;;;;;3.91;100.00;95852.47;5042097;28;20048;-67
2022/11/19 00:20:27;;;;;;;7.40;3.50;;;;;;;3.95;100.00;95851.44;5036481;28;20037;-67
2022/11/19 00:22:55;;;;;;;5.72;3.72;;;;;;;4.13;100.00;95848.44;5041450;28;20382;-67
2022/11/19 00:25:22;;;;;;;6.50;2.88;;;;;;;4.05;100.00;95844.72;5036677;28;20678;-66
2022/11/19 00:27:48;;;;;;;8.95;3.47;;;;;;;4.04;100.00;95845.88;5042278;28;20044;-67
2022/11/19 00:30:14;;;;;;;9.07;3.08;;;;;;;3.96;100.00;95839.47;5048009;28;20051;-66
2022/11/19 00:32:39;;;;;;;4.95;2.83;;;;;;;3.87;100.00;95836.13;5046119;28;20110;-67
2022/11/19 00:35:05;;;;;;;6.80;2.97;;;;;;;3.90;100.00;95840.06;5033297;28;20394;-67
2022/11/19 00:37:31;;;;;;;4.55;2.33;;;;;;;3.94;100.00;95830.91;5040895;28;20143;-67
2022/11/19 00:39:56;;;;;;;6.63;2.63;;;;;;;4.05;100.00;95833.09;5041055;28;20366;-67
2022/11/19 00:42:22;;;;;;;7.85;2.85;;;;;;;4.18;100.00;95838.13;5035588;28;20391;-66
2022/11/19 00:44:48;;;;;;;5.07;2.63;;;;;;;4.18;100.00;95835.41;5036906;28;20124;-67
2022/11/19 00:47:14;;;;;;;9.40;2.63;;;;;;;4.21;100.00;95833.94;5034680;28;20509;-67
2022/11/19 00:49:39;;;;;;;6.07;2.60;;;;;;;4.24;100.00;95844.09;5041202;28;20045;-67
2022/11/19 00:52:05;;;;;;;3.80;2.60;;;;;;;4.16;100.00;95845.00;5034654;28;20160;-66
2022/11/19 00:54:30;;;;;;;4.65;2.55;;;;;;;4.09;100.00;95840.22;5041401;28;20064;-67
2022/11/19 00:56:56;;;;;;;5.38;2.55;;;;;;;4.20;100.00;95843.22;5022969;28;20047;-66
2022/11/19 00:59:21;;;;;;;3.38;2.30;;;;;;;4.29;100.00;95841.13;5034528;28;20228;-66
2022/11/19 01:01:47;;;;;;;4.75;2.75;;;;;;;4.29;100.00;95843.06;5039205;28;20051;-67
2022/11/19 01:04:12;;;;;;;5.47;3.08;;;;;;;4.06;100.00;95840.09;5035608;28;20136;-67
2022/11/19 01:06:38;;;;;;;5.90;3.33;;;;;;;4.06;100.00;95840.09;5041598;28;20033;-67
2022/11/19 01:09:03;;;;;;;4.97;3.00;;;;;;;3.95;100.00;95842.53;5046375;28;20045;-66
2022/11/19 01:11:31;;;;;;;5.32;3.00;;;;;;;4.05;100.00;95849.38;5025145;28;20071;-66
2022/11/19 01:13:57;;;;;;;6.20;3.20;;;;;;;3.83;100.00;95846.84;5044912;28;20071;-67
2022/11/19 01:16:29;;;;;;;5.93;3.78;;;;;;;3.69;100.00;95845.63;5034061;28;20043;-66
2022/11/19 01:18:55;;;;;;;8.88;4.85;;;;;;;3.57;100.00;95846.47;5041362;28;20065;-67
2022/11/19 01:21:23;;;;;;;9.05;4.32;;;;;;;3.59;100.00;95847.69;5035573;28;20456;-68
2022/11/19 01:23:48;;;;;;;9.93;4.18;;;;;;;3.60;100.00;95838.47;5040678;28;20474;-67
2022/11/19 01:26:15;;;;;;;7.75;4.75;;;;;;;3.66;100.00;95844.41;5034309;28;20048;-67
2022/11/19 01:28:41;;;;;;;7.47;4.35;;;;;;;3.71;100.00;95843.38;5040544;28;20037;-67
2022/11/19 01:31:12;;;;;;;8.15;4.18;;;;;;;3.89;100.00;95844.69;5035051;28;20043;-65
2022/11/19 01:33:38;;;;;;;10.07;3.60;;;;;;;4.09;100.00;95840.22;5039541;28;20425;-67
2022/11/19 01:36:07;;;;;;;8.38;4.07;;;;;;;4.25;100.00;95845.69;5035482;28;20075;-66
2022/11/19 01:38:33;;;;;;;7.30;3.80;;;;;;;4.24;100.00;95846.78;5040447;28;20045;-67
2022/11/19 01:41:01;;;;;;;7.70;3.50;;;;;;;4.27;100.00;95851.53;5040829;28;20068;-67
2022/11/19 01:43:45;;;;;;;8.63;3.80;;;;;;;4.35;100.00;95857.94;5022036;28;20567;-67
2022/11/19 01:46:14;;;;;;;8.82;3.95;;;;;;;4.48;100.00;95858.66;5034731;28;20077;-67
2022/11/19 01:48:48;;;;;;;4.85;3.25;;;;;;;4.55;100.00;95858.84;5044162;28;20060;-67
2022/11/19 01:51:23;;;;;;;6.30;3.20;;;;;;;4.39;100.00;95858.81;5053084;28;20358;-68
2022/11/19 01:53:50;;;;;;;4.43;3.20;;;;;;;4.29;100.00;95862.03;5038361;28;20056;-65
2022/11/19 01:56:19;;;;;;;8.40;3.58;;;;;;;4.18;100.00;95865.22;5034889;28;20041;-65
2022/11/19 01:58:47;;;;;;;6.55;3.88;;;;;;;4.15;100.00;95870.56;5040603;28;20037;-67
2022/11/19 02:01:14;;;;;;;8.43;4.03;;;;;;;4.13;100.00;95872.81;5035322;28;20611;-67
2022/11/19 02:03:41;;;;;;;5.32;3.50;;;;;;;4.15;100.00;95870.56;5040645;28;20423;-67
2022/11/19 02:06:07;;;;;;;6.57;3.83;;;;;;;4.29;100.00;95873.66;5032203;28;20451;-67
2022/11/19 02:08:40;;;;;;;7.65;3.80;;;;;;;4.37;100.00;95875.41;5038869;28;20128;-67
2022/11/19 02:11:11;;;;;;;6.30;3.60;;;;;;;4.44;100.00;95871.34;5033787;28;20391;-67
2022/11/19 02:13:44;;;;;;;5.90;2.90;;;;;;;4.44;100.00;95874.03;5040372;28;20072;-66
2022/11/19 02:16:24;;;;;;;5.43;3.55;;;;;;;4.56;100.00;95871.28;5016381;28;20064;-67
2022/11/19 02:19:19;;;;;;;13.95;3.78;;;;;;;4.65;100.00;95865.69;5044972;28;20086;-67
2022/11/19 02:21:59;;;;;;;6.93;3.25;;;;;;;4.68;100.00;95873.91;5032392;28;20055;-67
2022/11/19 02:24:50;;;;;;;5.03;2.70;;;;;;;4.75;100.00;95867.88;5041145;28;20493;-67
2022/11/19 02:27:40;;;;;;;3.95;2.00;;;;;;;4.67;100.00;95877.75;5040671;28;20109;-67
2022/11/19 02:30:10;;;;;;;4.50;2.88;;;;;;;4.67;100.00;95882.41;5038425;28;20133;-66
2022/11/19 02:33:07;;;;;;;5.65;3.47;;;;;;;4.38;100.00;95887.06;5044487;28;20052;-67
2022/11/19 02:35:54;;;;;;;9.10;3.53;;;;;;;4.16;100.00;95872.13;5034825;28;20033;-67
2022/11/19 02:39:04;;;;;;;8.48;3.35;;;;;;;4.22;100.00;95876.19;5042867;28;20037;-68
2022/11/19 02:44:57;;;;;;;8.18;4.05;;;;;;;4.21;100.00;95885.44;5044746;28;20040;-67
2022/11/19 02:47:49;;;;;;;7.80;4.60;;;;;;;4.42;100.00;95877.09;5034865;28;20247;-66
2022/11/19 02:50:23;;;;;;;6.15;3.92;;;;;;;4.53;100.00;95889.00;5038858;28;20072;-67
2022/11/19 02:52:49;;;;;;;9.52;4.13;;;;;;;4.71;100.00;95889.47;5026012;28;20041;-67
2022/11/19 02:55:19;;;;;;;7.28;3.28;;;;;;;4.72;100.00;95893.78;5044714;28;20051;-67
2022/11/19 02:57:54;;;;;;;8.50;4.22;;;;;;;4.85;100.00;95894.50;5042314;28;20159;-67
2022/11/19 03:06:04;;;;;;;6.43;3.00;;;;;;;4.94;100.00;95884.25;5043014;28;20076;-68
2022/11/19 03:08:29;;;;;;;6.60;3.30;;;;;;;5.03;100.00;95888.72;5042003;28;20094;-66
2022/11/19 03:11:23;;;;;;;5.63;3.38;;;;;;;5.01;100.00;95891.00;5043380;28;20037;-67
2022/11/19 03:16:57;;;;;;;5.93;3.20;;;;;;;4.92;100.00;95894.66;5049275;28;20041;-68
2022/11/19 03:19:42;;;;;;;4.03;3.00;;;;;;;4.96;100.00;95897.47;5042743;28;20044;-68
2022/11/19 03:22:25;;;;;;;5.43;2.88;;;;;;;5.03;100.00;95884.06;5035722;28;20128;-67
2022/11/19 03:25:06;;;;;;;4.80;2.65;;;;;;;5.06;100.00;95879.88;5040703;28;20110;-68
2022/11/19 03:27:40;;;;;;;3.35;2.20;;;;;;;5.03;100.00;95881.38;5039084;28;20099;-68
2022/11/19 03:30:07;;;;;;;7.85;2.75;;;;;;;5.01;100.00;95882.88;5035583;28;20091;-66
2022/11/19 03:32:39;;;;;;;4.40;2.33;;;;;;;5.07;100.00;95893.09;5039093;28;20457;-67
2022/11/19 03:35:10;;;;;;;4.07;2.90;;;;;;;5.02;100.00;95884.44;5034880;28;20099;-66
2022/11/19 03:37:40;;;;;;;3.53;2.22;;;;;;;5.03;100.00;95884.06;5039493;28;20106;-70
2022/11/19 03:40:09;;;;;;;4.70;2.38;;;;;;;5.11;100.00;95891.28;5034788;28;20067;-67
2022/11/19 03:42:35;;;;;;;8.48;2.30;;;;;;;5.14;100.00;95879.69;5040330;28;20377;-68
2022/11/19 03:45:10;;;;;;;3.22;2.10;;;;;;;5.20;100.00;95876.72;5039765;28;20147;-67
2022/11/19 03:47:39;;;;;;;4.97;2.10;;;;;;;5.31;100.00;95883.19;5038147;28;20375;-67
2022/11/19 03:50:17;;;;;;;6.13;2.22;;;;;;;5.41;100.00;95888.06;5034774;28;20044;-67
2022/11/19 03:52:43;;;;;;;5.32;2.17;;;;;;;5.42;100.00;95878.00;5040127;28;20506;-67
2022/11/19 03:55:09;;;;;;;5.63;2.33;;;;;;;5.39;100.00;95890.34;5035288;28;20037;-65
2022/11/19 03:57:34;;;;;;;3.13;2.40;;;;;;;5.42;100.00;95888.84;5039226;28;20124;-67
2022/11/19 04:00:00;;;;;;;5.50;2.28;;;;;;;5.38;100.00;95890.72;5022023;28;20037;-67
2022/11/19 04:02:25;;;;;;;5.07;2.63;;;;;;;5.45;100.00;95894.38;5034995;28;20445;-67
2022/11/19 04:04:51;;;;;;;4.25;2.22;;;;;;;5.45;100.00;95894.38;5039321;28;20137;-67
2022/11/19 04:07:20;;;;;;;4.78;2.78;;;;;;;5.42;100.00;95897.81;5032884;28;20075;-67
2022/11/19 04:09:47;;;;;;;5.53;2.20;;;;;;;5.42;100.00;95900.53;5047892;28;20105;-68
2022/11/19 04:12:21;;;;;;;4.50;2.28;;;;;;;5.47;100.00;95896.75;5034809;28;20056;-66
2022/11/19 04:14:47;;;;;;;7.10;2.70;;;;;;;5.53;100.00;95896.13;5039953;28;20037;-67
2022/11/19 04:17:14;;;;;;;4.30;2.72;;;;;;;5.54;100.00;95900.41;5014197;28;20417;-67
2022/11/19 04:19:41;;;;;;;4.35;2.50;;;;;;;5.48;100.00;95893.69;5022146;28;20040;-67
2022/11/19 04:22:06;;;;;;;5.75;3.17;;;;;;;5.42;100.00;95888.84;5032643;28;20029;-67
2022/11/19 04:24:32;;;;;;;3.42;2.00;;;;;;;5.53;100.00;95887.97;5039221;28;20567;-67
2022/11/19 04:26:57;;;;;;;5.55;2.45;;;;;;;5.48;100.00;95885.53;5020819;28;20041;-67
2022/11/19 04:29:23;;;;;;;5.65;2.00;;;;;;;5.41;100.00;95887.28;5032084;28;20043;-67
2022/11/19 04:31:48;;;;;;;3.90;2.10;;;;;;;5.40;100.00;95877.56;5038989;28;20418;-67
2022/11/19 04:34:14;;;;;;;4.78;2.10;;;;;;;5.42;100.00;95881.53;5034191;28;20037;-67
2022/11/19 04:36:40;;;;;;;3.35;1.85;;;;;;;5.52;100.00;95878.25;5037977;28;20033;-67
2022/11/19 04:39:07;;;;;;;3.67;2.03;;;;;;;5.49;100.00;95891.72;5051840;28;20058;-67
2022/11/19 04:41:33;;;;;;;5.75;2.15;;;;;;;5.38;100.00;95886.06;5041614;28;20040;-67
2022/11/19 04:43:58;;;;;;;5.30;1.95;;;;;;;5.19;100.00;95881.38;5019602;28;20044;-67
2022/11/19 04:46:24;;;;;;;4.13;2.00;;;;;;;5.02;100.00;95892.56;5031286;28;20048;-67
2022/11/19 04:48:49;;;;;;;5.47;2.10;;;;;;;4.85;100.00;95888.28;5039130;28;20032;-67
2022/11/19 04:51:14;;;;;;;4.18;2.30;;;;;;;4.71;100.00;95888.69;5036040;28;20678;-67
2022/11/19 04:53:40;;;;;;;5.15;2.90;;;;;;;4.71;100.00;95894.91;5039089;28;20048;-67
2022/11/19 04:56:06;;;;;;;3.50;2.53;;;;;;;4.59;100.00;95892.25;5038160;28;20561;-69
2022/11/19 04:58:32;;;;;;;5.47;3.00;;;;;;;4.42;100.00;95887.94;5045926;28;20064;-68
2022/11/19 05:00:57;;;;;;;3.50;2.58;;;;;;;4.37;100.00;95894.38;5044139;28;20056;-67
2022/11/19 05:03:23;;;;;;;6.05;2.80;;;;;;;4.47;100.00;95889.63;5038933;28;20045;-67
2022/11/19 05:05:48;;;;;;;6.80;2.95;;;;;;;4.48;100.00;95893.91;5038506;28;20033;-67
2022/11/19 05:08:14;;;;;;;4.22;2.72;;;;;;;4.46;100.00;95896.19;5031063;28;20567;-67
2022/11/19 05:10:39;;;;;;;4.50;2.90;;;;;;;4.40;100.00;95901.84;5038952;28;20167;-67
2022/11/19 05:13:04;;;;;;;5.22;2.80;;;;;;;4.44;100.00;95893.03;5035203;28;20053;-66
2022/11/19 05:15:30;;;;;;;7.00;3.30;;;;;;;4.57;100.00;95908.09;5040099;28;20037;-66
2022/11/19 05:17:55;;;;;;;5.97;3.40;;;;;;;4.67;100.00;95901.38;5022691;28;20047;-66
2022/11/19 05:20:20;;;;;;;6.75;3.50;;;;;;;4.51;100.00;95893.22;5016901;28;20786;-67
2022/11/19 05:22:46;;;;;;;7.10;2.97;;;;;;;4.49;100.00;95900.91;5038157;28;20384;-67
2022/11/19 05:25:11;;;;;;;7.28;2.95;;;;;;;4.40;100.00;95899.13;5037489;28;20080;-66
2022/11/19 05:27:37;;;;;;;3.88;2.83;;;;;;;4.39;100.00;95897.56;5041583;28;20079;-67
2022/11/19 05:30:03;;;;;;;4.00;2.88;;;;;;;4.41;100.00;95897.19;5036961;28;20041;-67
2022/11/19 05:32:28;;;;;;;5.80;2.83;;;;;;;4.40;100.00;95896.41;5037327;28;20041;-67
2022/11/19 05:34:54;;;;;;;5.20;2.90;;;;;;;4.38;100.00;95895.97;5023097;28;20037;-67
2022/11/19 05:37:19;;;;;;;7.88;3.00;;;;;;;4.40;100.00;95891.00;5033245;28;20056;-67
2022/11/19 05:39:45;;;;;;;8.43;3.20;;;;;;;4.36;100.00;95894.75;5045711;28;20048;-67
2022/11/19 05:42:10;;;;;;;4.78;3.13;;;;;;;4.32;100.00;95889.25;5038959;28;20045;-67
2022/11/19 05:44:35;;;;;;;5.05;2.90;;;;;;;4.30;100.00;95888.78;5038837;28;20634;-67
2022/11/19 05:47:01;;;;;;;5.57;3.75;;;;;;;3.88;100.00;95886.44;5039365;28;20053;-67
2022/11/19 05:49:26;;;;;;;5.05;3.35;;;;;;;3.38;100.00;95884.94;5035726;28;20132;-67
2022/11/19 05:51:52;;;;;;;5.18;3.60;;;;;;;3.32;100.00;95886.31;5022509;28;20706;-66
2022/11/19 05:54:17;;;;;;;6.07;4.20;;;;;;;3.25;100.00;95886.88;5034216;28;20056;-68
2022/11/19 05:56:43;;;;;;;5.72;4.25;;;;;;;3.26;100.00;95891.19;5039915;28;20043;-68
2022/11/19 05:59:08;;;;;;;5.60;3.80;;;;;;;3.34;100.00;95886.78;5039388;28;20051;-68
2022/11/19 06:01:34;;;;;;;7.97;4.18;;;;;;;3.46;100.00;95889.47;5038055;28;20486;-67
2022/11/19 06:03:59;;;;;;;8.07;4.90;;;;;;;3.62;100.00;95892.28;5040111;28;20083;-68
2022/11/19 06:06:25;;;;;;;7.47;4.30;;;;;;;3.66;100.00;95890.44;5031966;28;20098;-68
2022/11/19 06:08:51;;;;;;;5.53;3.80;;;;;;;3.75;100.00;95893.81;5039031;28;20103;-68
2022/11/19 06:14:01;;;;;;;9.82;4.03;;;;;;;3.20;100.00;95895.22;5039774;28;20052;-67
2022/11/19 06:16:26;;;;;;;10.48;4.93;;;;;;;3.11;100.00;95900.75;5033701;28;20048;-68
2022/11/19 06:18:52;;;;;;;7.55;5.20;;;;;;;3.12;100.00;95901.56;5037304;28;20400;-68
2022/11/19 06:21:17;;;;;;;9.70;5.45;;;;;;;3.10;100.00;95906.47;5035849;28;20128;-68
2022/11/19 06:23:43;;;;;;;9.88;5.15;;;;;;;3.06;100.00;95899.06;5043777;28;20063;-67
2022/11/19 06:26:09;;;;;;;9.80;4.75;;;;;;;3.03;100.00;95905.13;5038158;28;20375;-65
2022/11/19 06:28:35;;;;;;;6.85;4.70;;;;;;;3.01;100.00;95910.09;5043813;28;20041;-66
2022/11/19 06:31:00;;;;;;;9.93;4.80;;;;;;;3.00;100.00;95908.50;5043409;28;20508;-67
2022/11/19 06:33:25;;;;;;;9.32;5.07;;;;;;;3.01;100.00;95918.22;5038725;28;20041;-67
2022/11/19 06:35:51;;;;;;;11.68;6.45;;;;;;;3.05;100.00;95915.63;5042464;28;20139;-67
2022/11/19 06:38:16;;;;;;;9.85;5.95;;;;;;;3.03;100.00;95917.88;5038260;28;20452;-67
2022/11/19 06:40:44;;;;;;;9.38;5.10;;;;;;;3.01;100.00;95920.13;5044411;28;20043;-67
2022/11/19 06:43:09;;;;;;;9.63;5.30;;;;;;;3.04;100.00;95930.28;5045434;28;20045;-67
2022/11/19 06:45:35;;;;;;;8.32;5.10;;;;;;;3.17;100.00;95934.59;5050036;28;20505;-66
2022/11/19 06:48:00;;;;;;;11.55;5.13;;;;;;;3.28;100.00;95929.50;5043035;28;20386;-66
2022/11/19 06:50:25;;;;;;;12.23;7.13;;;;;;;3.39;100.00;95936.06;5038030;28;20052;-66
2022/11/19 06:52:51;;;;;;;10.65;6.65;;;;;;;3.45;100.00;95936.59;5025134;28;20040;-68
2022/11/19 06:55:16;;;;;;;8.27;5.03;;;;;;;3.34;100.00;95932.78;5037350;28;20550;-68
2022/11/19 06:57:42;;;;;;;10.73;5.10;;;;;;;3.30;100.00;95940.78;5041831;28;20411;-68
2022/11/19 07:00:08;;;;;;;8.18;5.28;;;;;;;3.32;100.00;95935.03;5036504;28;20048;-66
2022/11/19 07:02:33;;;;;;;10.00;4.95;;;;;;;3.38;100.00;95948.00;5025084;28;20037;-67
2022/11/19 07:04:59;;;;;;;6.80;4.57;;;;;;;3.50;100.00;95951.84;5042538;28;20183;-68
2022/11/19 07:07:24;;;;;;;26.40;11.02;;;;;;;3.72;100.00;95948.66;5037055;28;20041;-68
2022/11/19 07:09:49;;;;;;;9.10;5.03;;;;;;;3.93;100.00;95956.66;5044088;28;20094;-68
2022/11/19 07:12:15;;;;;;;11.80;4.78;;;;;;;4.08;100.00;95960.56;5047229;28;20040;-68
2022/11/19 07:14:40;;;;;;;18.23;7.82;;;;;;;3.76;100.00;95968.53;5042125;28;20049;-68
2022/11/19 07:17:05;;;;;;;21.80;9.23;;;;;;;3.67;100.00;95973.25;5017939;28;20048;-68
2022/11/19 07:19:31;;;;;;;19.98;8.23;;;;;;;3.97;100.00;95973.78;5039216;28;20043;-68
2022/11/19 07:21:56;;;;;;;14.38;7.82;;;;;;;4.35;100.00;95979.94;5042141;28;20033;-68
2022/11/19 07:24:22;;;;;;;14.73;6.68;;;;;;;4.59;100.00;95979.03;5035481;28;20053;-69
2022/11/19 07:26:47;;;;;;;13.55;5.13;;;;;;;4.79;100.00;95980.78;5041774;28;20161;-67
2022/11/19 07:29:14;;;;;;;7.93;4.03;;;;;;;4.87;100.00;95983.69;5034414;28;20041;-67
2022/11/19 07:31:42;;;;;;;5.60;3.53;;;;;;;5.05;100.00;95990.38;5045510;28;20065;-67
2022/11/19 07:34:09;;;;;;;5.82;3.85;;;;;;;5.20;100.00;95993.44;5022952;28;20378;-67
2022/11/19 07:36:36;;;;;;;5.47;3.65;;;;;;;4.96;100.00;95995.16;5026461;28;20134;-68
2022/11/19 07:39:02;;;;;;;7.15;3.90;;;;;;;4.54;100.00;95993.66;5041073;28;20371;-68
2022/11/19 07:44:11;;;;;;;7.55;4.50;;;;;;;4.70;100.00;96003.75;5037833;28;20501;-67
2022/11/19 07:46:37;;;;;;;9.98;5.55;;;;;;;4.85;100.00;96013.09;5043069;28;20037;-67
2022/11/19 07:49:02;;;;;;;10.32;4.65;;;;;;;5.22;100.00;96002.84;5038446;28;20491;-69
2022/11/19 07:51:27;;;;;;;11.60;6.00;;;;;;;5.69;100.00;96007.50;5022438;28;20032;-67
2022/11/19 07:53:54;;;;;;;9.38;5.63;;;;;;;6.42;100.00;96002.53;5043062;28;20065;-67
2022/11/19 07:56:20;;;;;;;9.60;5.13;;;;;;;7.32;100.00;96011.66;5044430;28;20107;-67
2022/11/19 07:58:45;;;;;;;7.60;3.90;;;;;;;7.62;100.00;96004.41;5052080;28;20411;-68
2022/11/19 08:01:17;;;;;;;5.35;3.28;;;;;;;8.07;100.00;96003.91;5044322;28;20041;-67
2022/11/19 08:03:45;;;;;;;4.40;2.92;;;;;;;7.87;100.00;96006.75;5044765;28;20421;-67
2022/11/19 08:06:14;;;;;;;5.57;2.05;;;;;;;7.97;100.00;96000.66;5009232;28;20139;-68
2022/11/19 08:08:40;;;;;;;4.13;2.25;;;;;;;8.19;100.00;96012.69;5025597;28;20061;-67
2022/11/19 08:11:08;;;;;;;6.82;2.65;;;;;;;8.51;100.00;96015.09;5035232;28;20055;-67
2022/11/19 08:13:34;;;;;;;13.05;6.50;;;;;;;8.63;100.00;96014.09;5040827;28;20424;-67
2022/11/19 08:16:08;;;;;;;9.55;6.55;;;;;;;9.00;100.00;96018.81;5041126;28;20083;-67
2022/11/19 08:18:34;;;;;;;8.60;4.85;;;;;;;9.18;100.00;96024.47;5023324;28;20099;-67
2022/11/19 08:21:07;;;;;;;5.75;2.85;;;;;;;9.56;100.00;96022.50;5040688;28;20401;-67
2022/11/19 08:23:34;;;;;;;7.43;3.70;;;;;;;9.72;98.55;96023.06;5033277;28;20045;-67
2022/11/19 08:25:59;;;;;;;7.85;3.95;;;;;;;9.42;99.60;96025.09;5041119;28;20037;-68
2022/11/19 08:28:26;;;;;;;7.13;3.40;;;;;;;9.50;98.68;96026.75;5035808;28;20037;-69
2022/11/19 08:30:51;;;;;;;7.00;2.97;;;;;;;9.55;97.53;96010.00;5041329;28;20128;-69
2022/11/19 08:33:17;;;;;;;9.13;3.20;;;;;;;9.63;96.74;96010.84;5035860;28;20148;-68
2022/11/19 08:35:42;;;;;;;3.97;2.50;;;;;;;9.42;95.75;96014.16;5021939;28;20456;-68
2022/11/19 08:38:08;;;;;;;9.30;3.92;;;;;;;9.55;97.37;96027.19;5036764;28;20467;-68
2022/11/19 08:40:33;;;;;;;10.90;2.88;;;;;;;9.73;96.43;96032.03;5042003;28;20048;-68
2022/11/19 08:42:59;;;;;;;7.80;2.67;;;;;;;9.45;99.74;96038.03;5046137;28;20037;-68
2022/11/19 08:45:36;;;;;;;4.00;1.55;;;;;;;9.87;96.44;96029.44;5036231;28;20429;-67
2022/11/19 08:48:04;;;;;;;7.53;2.13;;;;;;;9.94;98.65;96026.75;5043641;28;20075;-68
2022/11/19 08:50:30;;;;;;;3.92;1.95;;;;;;;9.77;99.48;96024.66;5032882;28;20037;-67
2022/11/19 08:52:58;;;;;;;5.45;1.60;;;;;;;10.13;94.45;96033.91;5042632;28;20052;-67
2022/11/19 08:55:25;;;;;;;4.20;1.75;;;;;;;10.17;91.51;96033.16;5033893;28;20045;-67
2022/11/19 08:57:50;;;;;;;5.68;1.98;;;;;;;9.75;93.35;96033.22;5041343;28;20075;-67
2022/11/19 09:00:17;;;;;;;5.65;1.33;;;;;;;10.28;90.57;96040.31;5034681;28;20064;-67
2022/11/19 09:02:42;;;;;;;7.15;1.73;;;;;;;10.42;87.38;96042.34;5041794;28;20643;-67
2022/11/19 09:05:08;;;;;;;3.58;1.48;;;;;;;10.36;87.36;96038.41;5017035;28;20040;-67
2022/11/19 09:07:33;;;;;;;3.10;1.40;;;;;;;10.07;90.32;96040.94;5040866;28;20041;-67
2022/11/19 09:09:59;;;;;;;3.97;1.58;;;;;;;9.77;93.00;96036.38;5040498;28;20044;-68
2022/11/19 09:12:24;;;;;;;6.65;1.70;;;;;;;9.82;93.02;96037.97;5035252;28;20040;-68
2022/11/19 09:14:50;;;;;;;7.05;1.50;;;;;;;10.02;92.04;96032.28;5039193;28;20044;-68
2022/11/19 09:17:15;;;;;;;4.35;1.60;;;;;;;9.97;93.95;96049.03;5034805;28;20052;-68
2022/11/19 09:19:40;;;;;;;4.75;1.60;;;;;;;10.03;93.04;96039.31;5035936;28;20120;-68
2022/11/19 09:22:06;;;;;;;6.07;2.08;;;;;;;9.88;95.48;96033.72;5035281;28;20490;-68
2022/11/19 09:24:31;;;;;;;8.35;1.42;;;;;;;10.00;92.00;96042.81;5043914;28;20135;-68
2022/11/19 09:26:57;;;;;;;5.03;1.52;;;;;;;10.14;89.24;96045.66;5059847;28;20048;-68
2022/11/19 09:29:22;;;;;;;3.28;1.20;;;;;;;9.56;92.83;96047.91;5048008;28;20533;-68
2022/11/19 09:31:47;;;;;;;4.82;1.58;;;;;;;9.13;99.35;96036.53;5041050;28;20063;-68
2022/11/19 09:34:13;;;;;;;9.40;2.55;;;;;;;9.16;94.86;96041.25;5044009;28;20044;-68
2022/11/19 09:36:38;;;;;;;5.03;2.40;;;;;;;8.92;98.58;96045.25;5047213;28;20037;-69
2022/11/19 09:39:04;;;;;;;4.65;2.30;;;;;;;8.62;100.00;96053.44;5026126;28;20140;-67
2022/11/19 09:41:58;;;;;;;5.07;2.42;;;;;;;8.57;100.00;96045.56;5045533;28;20126;-69
2022/11/19 09:44:45;;;;;;;5.75;2.30;;;;;;;9.65;96.88;96046.81;5036176;28;20131;-69
2022/11/19 09:47:17;;;;;;;5.18;1.85;;;;;;;10.19;90.45;96056.28;5016318;28;20044;-68
2022/11/19 09:50:13;;;;;;;7.20;2.20;;;;;;;10.21;90.19;96055.88;5039617;28;20072;-68
2022/11/19 09:52:50;;;;;;;4.07;1.83;;;;;;;11.08;86.06;96047.00;5039589;28;20135;-68
2022/11/19 09:55:21;;;;;;;6.80;2.10;;;;;;;11.80;78.81;96047.97;5034059;28;20041;-68
2022/11/19 09:57:54;;;;;;;6.28;2.10;;;;;;;12.02;78.19;96051.53;5040047;28;20029;-67
2022/11/19 10:00:27;;;;;;;4.25;1.52;;;;;;;11.91;78.35;96052.72;5029757;28;20040;-68
2022/11/19 10:02:54;;;;;;;10.05;2.03;;;;;;;12.07;77.58;96044.88;5040888;28;20083;-69
2022/11/19 10:05:58;;;;;;;5.90;1.75;;;;;;;12.67;72.27;96045.97;5034785;28;20137;-69
2022/11/19 10:08:36;;;;;;;4.57;1.70;;;;;;;12.00;72.82;96051.13;5016293;28;20413;-68
2022/11/19 10:11:20;;;;;;;5.38;1.50;;;;;;;12.01;73.73;96049.97;5045134;28;20036;-69
2022/11/19 10:13:51;;;;;;;5.28;1.48;;;;;;;12.09;71.76;96039.78;5026583;28;20465;-69
2022/11/19 10:16:40;;;;;;;8.43;2.53;;;;;;;11.44;73.10;96047.91;5011874;28;20056;-69
2022/11/19 10:19:14;;;;;;;4.95;1.50;;;;;;;11.54;73.26;96043.63;5021262;28;20045;-68
2022/11/19 10:21:52;;;;;;;4.55;1.40;;;;;;;11.27;76.88;96032.97;5038740;28;20037;-69
2022/11/19 10:24:51;;;;;;;2.92;1.23;;;;;;;11.66;73.76;96029.53;5033033;28;20067;-68
2022/11/19 10:27:37;;;;;;;;;;;;;;;11.93;73.03;96017.44;5031087;28;20048;-68
2022/11/19 10:30:11;;;;;;;4.68;1.20;;;;;;;13.27;66.78;96016.72;5014080;28;19940;-66
2022/11/19 10:33:09;;;;;;;4.75;1.10;;;;;;;12.84;68.74;96005.91;5042015;28;20044;-69
2022/11/19 10:35:45;;;;;;;8.65;1.40;;;;;;;13.07;67.33;96005.41;5053206;28;20043;-68
2022/11/19 10:38:14;;;;;;;4.18;1.30;;;;;;;12.85;67.12;96001.19;5055222;28;20047;-67
2022/11/19 10:40:49;;;;;;;6.78;1.27;;;;;;;12.84;68.19;96007.84;5060617;28;20052;-67
2022/11/19 10:43:30;;;;;;;6.72;1.63;;;;;;;11.92;70.23;96002.13;5036982;28;20543;-69
2022/11/19 10:45:58;;;;;;;4.53;1.35;;;;;;;11.57;71.03;96000.91;5029194;28;20041;-69
2022/11/19 10:48:38;;;;;;;3.70;1.83;;;;;;;11.84;70.70;96004.84;5016209;28;20655;-68
2022/11/19 10:51:28;;;;;;;8.63;1.50;;;;;;;11.62;72.31;95995.81;5036879;28;20128;-70
2022/11/19 10:53:54;;;;;;;;;;;;;;;11.55;71.94;95998.56;5042079;28;20052;-69
2022/11/19 10:56:37;;;;;;;6.95;3.03;;;;;;;12.17;70.31;95988.38;5041230;28;20369;-68
2022/11/19 10:59:27;;;;;;;4.43;1.58;;;;;;;11.99;71.11;95991.97;5038379;28;20080;-65
2022/11/19 11:01:58;;;;;;;3.42;1.35;;;;;;;11.88;71.31;95988.38;5016945;28;20422;-68
2022/11/19 11:04:27;;;;;;;5.50;1.80;;;;;;;12.81;67.44;95987.44;5035854;28;20376;-69
2022/11/19 11:06:59;;;;;;;9.50;2.40;;;;;;;13.03;66.32;95981.88;5040267;28;20037;-70
2022/11/19 11:09:38;;;;;;;5.53;1.63;;;;;;;13.11;65.92;95980.66;5038221;28;20083;-66
2022/11/19 11:15:13;;;;;;;5.70;1.33;;;;;;;12.65;65.15;95981.63;5042448;28;20078;-68
2022/11/19 11:17:38;;;;;;;6.13;1.15;;;;;;;13.33;63.51;95975.84;5035773;28;20120;-69
2022/11/19 11:20:19;;;;;;;3.95;1.20;;;;;;;13.99;59.72;95974.16;5022076;28;20494;-66
2022/11/19 11:22:47;;;;;;;7.68;1.20;;;;;;;13.13;62.36;95984.56;5043043;28;20683;-67
2022/11/19 11:25:25;;;;;;;3.83;1.38;;;;;;;13.64;59.47;95981.53;5038035;28;20044;-68
2022/11/19 11:28:05;;;;;;;3.35;1.20;;;;;;;13.39;59.46;95980.50;5042869;28;20070;-69
2022/11/19 11:30:31;;;;;;;2.67;1.10;;;;;;;12.67;61.75;95984.75;5012903;28;20044;-69
2022/11/19 11:32:56;;;;;;;3.30;1.00;;;;;;;13.07;59.51;95983.44;5039128;28;20033;-68
2022/11/19 11:35:34;;;;;;;3.38;1.20;;;;;;;12.98;60.67;95985.81;5037759;28;20214;-68
2022/11/19 11:38:01;;;;;;;5.95;1.05;;;;;;;12.29;61.94;95977.00;5025339;28;20462;-68
2022/11/19 11:40:27;;;;;;;3.70;1.23;;;;;;;13.06;60.73;95970.06;5039457;28;20037;-68
2022/11/19 11:42:54;;;;;;;4.68;1.40;;;;;;;13.71;58.47;95975.97;5052563;28;20044;-69
2022/11/19 11:45:29;;;;;;;6.20;1.10;;;;;;;14.39;56.19;95985.63;5038043;28;20601;-68
2022/11/19 11:47:55;;;;;;;4.15;1.00;;;;;;;14.42;54.99;95973.75;5043378;28;20191;-68
2022/11/19 11:50:24;;;;;;;5.22;1.10;;;;;;;13.16;58.19;95974.72;5017504;28;20044;-67
2022/11/19 11:52:52;;;;;;;3.05;1.30;;;;;;;13.04;58.92;95966.94;5042665;28;20069;-67
2022/11/19 11:55:23;;;;;;;5.68;1.35;;;;;;;12.82;60.53;95967.03;5019418;28;20041;-66
2022/11/19 11:58:27;;;;;;;5.90;1.15;;;;;;;13.09;60.28;95955.50;5042195;28;20059;-67
2022/11/19 12:00:54;;;;;;;3.95;1.35;;;;;;;12.45;62.54;95951.84;5018010;28;20486;-68
2022/11/19 12:03:21;;;;;;;6.88;1.20;;;;;;;12.88;61.57;95953.66;5016482;28;20033;-68
2022/11/19 12:06:00;;;;;;;5.30;1.90;;;;;;;13.38;60.78;95956.16;5037682;28;20049;-68